Uniontown, PA

1:45 AM EDT on September 02, 2014 (GMT -0400)
Washington County | Change Station
CLOSE
Current Station
Airport
Location: Washington,
Elevation: 1184 ft
Nearby Weather Stations

Elev 1184 ft 40.14 °N, 80.29 °W | Updated 10 minutes ago

Overcast
Overcast
72 °F
Feels Like 72 °F
N
4
Wind Variable Wind from SSW

Today
High -- | Low -- °F
--% Chance of Precip.
Yesterday
High -- | Low -- °F
Precip. -- in
6:47 AM 7:48 PM
Waxing Crescent, 48% visible
Pressure 30.00 in
Visibility 10.0 miles
Clouds Few 4200 ft
Scattered Clouds 9000 ft
Overcast 11000 ft
Dew Point 66 °F
Humidity 83%
Rainfall 0.00 in
Snow Depth Not available.
UV 0 out of 12
Pollen 9.20 out of 12
Air Quality Not available.
Flu Activity Not available.
METAR KAFJ 020535Z AUTO 21003KT 10SM FEW042 SCT090 OVC110 22/19 A3000 RMK AO1

More Conditions Fewer Conditions

Pressure 30.00 in
Visibility 10.0 miles
Clouds Few 4200 ft
Scattered Clouds 9000 ft
Overcast 11000 ft
Dew Point 66 °F
Humidity 83%
Rainfall 0.00 in
Snow Depth Not available.
UV 0 out of 12
Pollen 9.20 out of 12
Air Quality Not available.
Flu Activity Not available.
METAR KAFJ 020535Z AUTO 21003KT 10SM FEW042 SCT090 OVC110 22/19 A3000 RMK AO1

More Conditions Fewer Conditions

10-Day Weather Forecast

Almanac

Astronomy

Sep. 02, 2014 Rise Set
Actual Time 6:47 AM EDT 7:48 PM EDT
Civil Twilight 6:20 AM EDT 8:16 PM EDT
Nautical Twilight 5:47 AM EDT 8:49 PM EDT
Astronomical Twilight 5:12 AM EDT 9:23 PM EDT
Moon 2:29 PM EDT No Moon Set
Length of Visible Light 13h 56m
Length of Day
13h 00m
Tomorrow will be 2m 31s shorter.
Waxing Crescent, 48% of the Moon is Illuminated
Today
Waxing Crescent
Sep 2
First Quarter
Sep 8
Full
Sep 15
Last Quarter
Sep 24
New

Today's Extremes

State Highs State Lows

Community

WunderPhotos

Upload Photos

1,749,579 photos uploaded!

WunderBlogs® & News

Nearby

Snow Depth

Station Depth Elevation
No new snow has been reported.

Earthquake Activity

City Distance Mag. Time & Date
No recent earthquake activity has been reported nearby.
Minimum magnitude displayed is 2.5.

Coastal Water Temperatures

Place Temperature
No Stations Reporting

Nearby Weather Stations